Terminal Aerodrome Forecast
Issued by NWS

Home | Current Version | Previous Version | Text Only | Print | Product List | Glossary On
Versions: 1 2 3 4 5 6 7 8 9 10 11 12 13 14 15 16
289
FTAK31 PAJN 240522
TAFAWG
TAF
PAWG 240522Z 2406/2506 00000KT P6SM FEW002 BKN025 OVC030
     FM240900 00000KT 6SM BR SCT002 OVC020
     FM242100 30005KT P6SM FEW025 BKN050=

USA.gov is the U.S. government's official web portal to all federal, state and local government web resources and services.